Time;durP1;ratioP1;P1;durP2;ratioP2;P2;SDS_P1;SDS_P2;PMS_P1;PMS_P2;Temp;Humidity;BMP_temperature;BMP_pressure;BME280_temperature;BME280_humidity;BME280_pressure;Samples;Min_cycle;Max_cycle;Signal;HPM_P1;HPM_P2
2021/09/07 00:00:21;;;;;;;14.45;9.25;;;;;;;18.93;60.43;101864.84;683594;28;21428;-66
2021/09/07 00:00:42;;;;;;;11.68;8.55;;;;;;;18.91;60.41;101856.84;682215;28;46114;-66
2021/09/07 00:01:04;;;;;;;12.68;9.07;;;;;;;18.92;60.56;101863.19;683228;28;22356;-66
2021/09/07 00:01:25;;;;;;;13.52;9.05;;;;;;;18.91;60.49;101861.50;682824;28;21539;-67
2021/09/07 00:01:47;;;;;;;14.95;8.85;;;;;;;18.89;60.59;101861.69;683464;28;22397;-66
2021/09/07 00:02:08;;;;;;;13.10;8.88;;;;;;;18.89;60.55;101860.84;680884;28;45387;-67
2021/09/07 00:02:29;;;;;;;12.48;9.05;;;;;;;18.90;60.68;101859.78;682974;28;23493;-67
2021/09/07 00:02:50;;;;;;;11.90;8.45;;;;;;;18.88;60.75;101862.72;683148;28;23423;-66
2021/09/07 00:03:11;;;;;;;11.60;8.52;;;;;;;18.87;60.55;101860.19;683300;28;22413;-66
2021/09/07 00:03:33;;;;;;;13.93;9.32;;;;;;;18.86;60.73;101862.09;683102;28;21556;-67
2021/09/07 00:03:54;;;;;;;13.95;9.23;;;;;;;18.85;60.66;101857.66;681936;28;47079;-66
2021/09/07 00:04:15;;;;;;;15.25;9.43;;;;;;;18.82;60.89;101855.31;683143;28;22393;-66
2021/09/07 00:04:36;;;;;;;13.43;9.07;;;;;;;18.83;60.87;101857.00;683002;28;30976;-67
2021/09/07 00:04:59;;;;;;;12.38;9.27;;;;;;;18.81;60.80;101852.78;682882;28;24694;-66
2021/09/07 00:05:20;;;;;;;13.32;8.93;;;;;;;18.81;60.88;101852.78;682023;28;44395;-66
2021/09/07 00:05:41;;;;;;;12.10;9.07;;;;;;;18.80;61.06;101856.56;682623;28;22241;-67
2021/09/07 00:06:02;;;;;;;13.63;9.18;;;;;;;18.79;61.03;101854.88;682685;28;21570;-66
2021/09/07 00:06:24;;;;;;;13.52;9.25;;;;;;;18.77;61.10;101851.50;683065;28;21557;-66
2021/09/07 00:06:45;;;;;;;14.85;9.60;;;;;;;18.76;61.03;101849.81;682439;28;46340;-67
2021/09/07 00:07:07;;;;;;;14.25;9.77;;;;;;;18.74;61.06;101850.00;682468;28;22401;-67
2021/09/07 00:07:28;;;;;;;16.10;9.75;;;;;;;18.74;61.20;101855.50;682148;28;45802;-66
2021/09/07 00:07:50;;;;;;;16.27;9.38;;;;;;;18.72;61.10;101850.22;681127;29;23435;-66
2021/09/07 00:08:11;;;;;;;14.82;9.15;;;;;;;18.72;61.23;101850.22;681093;28;44408;-67
2021/09/07 00:08:32;;;;;;;16.17;9.30;;;;;;;18.72;61.23;101842.00;682166;28;22412;-66
2021/09/07 00:08:53;;;;;;;17.15;9.55;;;;;;;18.70;61.39;101841.38;683134;28;22358;-67
2021/09/07 00:09:16;;;;;;;12.60;8.88;;;;;;;18.71;61.39;101850.44;682204;28;46407;-66
2021/09/07 00:09:39;;;;;;;13.23;8.90;;;;;;;18.70;61.29;101844.13;681791;28;59122;-68
2021/09/07 00:10:00;;;;;;;14.30;9.15;;;;;;;18.72;61.41;101841.19;683873;28;1196;-66
2021/09/07 00:10:24;;;;;;;14.00;9.48;;;;;;;18.71;61.45;101842.22;682812;28;46454;-66
2021/09/07 00:10:45;;;;;;;15.05;9.50;;;;;;;18.70;61.31;101844.13;681057;28;92153;-67
2021/09/07 00:11:07;;;;;;;14.27;9.05;;;;;;;18.71;61.41;101845.81;683594;28;21538;-67
2021/09/07 00:11:28;;;;;;;13.50;9.18;;;;;;;18.71;61.37;101843.09;683257;28;21563;-67
2021/09/07 00:11:55;;;;;;;14.15;9.25;;;;;;;18.69;61.39;101841.59;679272;28;137885;-67
2021/09/07 00:12:17;;;;;;;13.98;9.55;;;;;;;18.71;61.41;101840.34;681742;28;69342;-66
2021/09/07 00:12:38;;;;;;;13.43;9.52;;;;;;;18.67;61.37;101839.06;682219;28;46241;-67
2021/09/07 00:13:01;;;;;;;12.93;8.90;;;;;;;18.69;61.23;101839.69;682559;28;46371;-67
2021/09/07 00:13:23;;;;;;;12.98;8.80;;;;;;;18.70;61.29;101843.28;683107;28;21570;-66
2021/09/07 00:13:44;;;;;;;13.32;9.10;;;;;;;18.69;61.37;101844.31;681983;28;46174;-67
2021/09/07 00:14:07;;;;;;;12.43;8.98;;;;;;;18.69;61.40;101842.41;681007;28;67499;-66
2021/09/07 00:14:28;;;;;;;13.65;9.18;;;;;;;18.70;61.55;101838.66;682919;28;22396;-67
2021/09/07 00:14:50;;;;;;;14.10;9.60;;;;;;;18.70;61.56;101843.28;683045;28;22400;-68
2021/09/07 00:15:14;;;;;;;14.05;9.32;;;;;;;18.67;61.51;101830.00;680333;28;92322;-67
2021/09/07 00:15:35;;;;;;;14.45;9.23;;;;;;;18.68;61.52;101839.88;681225;28;69171;-67
2021/09/07 00:15:57;;;;;;;14.02;9.88;;;;;;;18.68;61.46;101840.75;682939;28;22238;-67
2021/09/07 00:16:19;;;;;;;15.70;10.05;;;;;;;18.69;61.60;101842.41;683169;28;21553;-67
2021/09/07 00:16:40;;;;;;;14.50;9.65;;;;;;;18.67;61.62;101838.22;682338;28;44392;-67
2021/09/07 00:17:01;;;;;;;13.35;9.18;;;;;;;18.69;61.60;101841.59;683056;28;23270;-67
2021/09/07 00:17:22;;;;;;;12.85;9.15;;;;;;;18.68;61.58;101837.16;682498;28;23483;-66
2021/09/07 00:17:45;;;;;;;13.18;9.27;;;;;;;18.68;61.63;101838.00;682475;28;22362;-67
2021/09/07 00:18:06;;;;;;;11.85;8.90;;;;;;;18.68;61.63;101838.00;682013;28;68375;-66
2021/09/07 00:18:27;;;;;;;13.48;9.57;;;;;;;18.68;61.67;101834.41;682846;28;21544;-67
2021/09/07 00:18:48;;;;;;;14.93;9.38;;;;;;;18.67;61.56;101840.94;683132;28;23463;-66
2021/09/07 00:19:09;;;;;;;15.77;9.13;;;;;;;18.67;61.59;101832.75;683455;28;22388;-67
2021/09/07 00:19:31;;;;;;;14.07;9.38;;;;;;;18.66;61.72;101831.88;683013;28;23475;-66
2021/09/07 00:19:52;;;;;;;14.98;9.27;;;;;;;18.66;61.79;101828.31;682041;28;46309;-66
2021/09/07 00:20:14;;;;;;;13.48;9.25;;;;;;;18.65;61.79;101830.22;681760;29;21499;-66
2021/09/07 00:20:37;;;;;;;12.63;9.32;;;;;;;18.65;61.72;101829.34;681510;28;46332;-67
2021/09/07 00:20:58;;;;;;;13.70;9.25;;;;;;;18.65;61.63;101834.81;681543;28;70011;-67
2021/09/07 00:21:19;;;;;;;12.93;8.95;;;;;;;18.65;61.72;101832.94;683116;28;23467;-67
2021/09/07 00:21:40;;;;;;;13.63;9.32;;;;;;;18.64;61.79;101842.19;683318;28;22396;-66
2021/09/07 00:22:01;;;;;;;15.35;9.27;;;;;;;18.64;61.82;101834.00;683035;28;23466;-67
2021/09/07 00:22:23;;;;;;;11.95;8.90;;;;;;;18.64;61.92;101839.47;682466;28;22632;-66
2021/09/07 00:22:44;;;;;;;13.48;9.25;;;;;;;18.63;61.93;101837.75;682490;28;46301;-66
2021/09/07 00:23:05;;;;;;;14.45;9.75;;;;;;;18.60;61.80;101827.22;683230;28;22405;-67
2021/09/07 00:23:26;;;;;;;13.93;9.43;;;;;;;18.61;62.01;101833.56;682963;28;24433;-67
2021/09/07 00:23:48;;;;;;;14.55;9.23;;;;;;;18.60;61.98;101832.69;683063;28;24329;-66
2021/09/07 00:24:09;;;;;;;12.57;8.90;;;;;;;18.58;61.85;101829.34;681961;28;46327;-67
2021/09/07 00:24:31;;;;;;;12.80;9.00;;;;;;;18.59;61.88;101833.75;685539;28;23475;-66
2021/09/07 00:24:52;;;;;;;14.65;8.88;;;;;;;18.58;61.93;101832.06;685739;28;21531;-66
2021/09/07 00:25:14;;;;;;;15.73;9.07;;;;;;;18.56;62.01;101825.97;684874;28;46289;-68
2021/09/07 00:25:36;;;;;;;14.60;8.95;;;;;;;18.54;62.05;101828.91;684341;28;44175;-68
2021/09/07 00:25:57;;;;;;;13.85;9.32;;;;;;;18.54;62.09;101833.50;683630;28;68469;-66
2021/09/07 00:26:18;;;;;;;12.73;9.27;;;;;;;18.50;62.01;101824.88;684484;28;21515;-66
2021/09/07 00:26:40;;;;;;;13.18;8.70;;;;;;;18.51;62.12;101831.19;683085;28;23444;-66
2021/09/07 00:27:02;;;;;;;13.38;8.77;;;;;;;18.50;62.05;101829.50;682079;28;45205;-66
2021/09/07 00:27:23;;;;;;;14.27;8.90;;;;;;;18.49;62.25;101836.03;680232;28;22531;-66
2021/09/07 00:27:44;;;;;;;14.18;9.00;;;;;;;18.48;62.19;101826.97;679584;29;22432;-66
2021/09/07 00:28:06;;;;;;;15.13;9.40;;;;;;;18.46;62.23;101829.06;679357;29;46535;-67
2021/09/07 00:28:27;;;;;;;14.63;9.88;;;;;;;18.48;62.16;101828.84;676439;29;69427;-67
2021/09/07 00:28:48;;;;;;;14.55;9.13;;;;;;;18.44;62.39;101825.69;679716;29;23443;-66
2021/09/07 00:29:09;;;;;;;11.88;8.57;;;;;;;18.45;62.43;101832.00;680270;28;21559;-66
2021/09/07 00:29:31;;;;;;;12.57;8.95;;;;;;;18.47;62.41;101840.84;682940;28;22559;-66
2021/09/07 00:29:52;;;;;;;13.25;8.75;;;;;;;18.45;62.48;101830.13;682427;28;45371;-65
2021/09/07 00:30:13;;;;;;;13.35;9.23;;;;;;;18.46;62.54;101833.69;682749;28;21547;-67
2021/09/07 00:30:34;;;;;;;14.20;8.93;;;;;;;18.46;62.60;101833.69;682562;28;22371;-66
2021/09/07 00:30:56;;;;;;;12.35;9.20;;;;;;;18.46;62.48;101830.94;682963;28;22231;-66
2021/09/07 00:31:17;;;;;;;13.23;9.48;;;;;;;18.42;62.46;101824.22;682135;28;46656;-66
2021/09/07 00:31:39;;;;;;;13.00;9.15;;;;;;;18.47;62.52;101828.00;683165;28;22390;-67
2021/09/07 00:32:00;;;;;;;12.25;8.82;;;;;;;18.47;62.49;101832.66;682380;28;46264;-66
2021/09/07 00:32:23;;;;;;;13.45;8.88;;;;;;;18.48;62.65;101826.97;682474;28;22387;-66
2021/09/07 00:32:44;;;;;;;14.27;9.13;;;;;;;18.48;62.53;101834.31;680868;29;44403;-66
2021/09/07 00:33:08;;;;;;;12.98;8.88;;;;;;;18.48;62.55;101834.31;681820;29;22398;-68
2021/09/07 00:33:30;;;;;;;15.10;9.10;;;;;;;18.49;62.57;101834.13;680230;28;90742;-66
2021/09/07 00:33:52;;;;;;;13.80;9.45;;;;;;;18.49;62.35;101836.84;681980;28;45503;-67
2021/09/07 00:34:14;;;;;;;14.50;8.82;;;;;;;18.48;62.49;101843.38;683689;28;69265;-67
2021/09/07 00:34:35;;;;;;;13.75;9.23;;;;;;;18.47;62.41;101835.38;684163;28;23277;-66
2021/09/07 00:34:56;;;;;;;13.45;9.38;;;;;;;18.47;62.45;101829.91;684159;28;24447;-67
2021/09/07 00:35:18;;;;;;;13.95;8.85;;;;;;;18.48;62.35;101834.31;685037;28;22085;-68
2021/09/07 00:35:39;;;;;;;14.13;9.10;;;;;;;18.48;62.33;101835.19;684255;28;46275;-67
2021/09/07 00:36:01;;;;;;;13.25;8.93;;;;;;;18.48;62.56;101835.19;684313;28;22406;-66
2021/09/07 00:36:22;;;;;;;14.10;9.48;;;;;;;18.50;62.22;101834.97;683055;28;21587;-66
2021/09/07 00:36:44;;;;;;;15.50;9.85;;;;;;;18.50;62.29;101835.81;682141;28;46324;-66
2021/09/07 00:37:05;;;;;;;12.95;8.77;;;;;;;18.50;62.26;101841.28;681329;28;69853;-66
2021/09/07 00:37:26;;;;;;;13.45;8.77;;;;;;;18.50;62.31;101832.25;680971;29;46343;-66
2021/09/07 00:37:47;;;;;;;14.95;9.57;;;;;;;18.51;62.17;101836.66;682318;28;23521;-66
2021/09/07 00:38:09;;;;;;;14.77;9.43;;;;;;;18.50;62.32;101833.09;683849;28;21516;-67
2021/09/07 00:38:30;;;;;;;12.82;8.90;;;;;;;18.51;62.21;101839.38;683309;28;46258;-66
2021/09/07 00:38:52;;;;;;;13.30;9.25;;;;;;;18.51;62.14;101837.50;683820;28;22405;-67
2021/09/07 00:39:13;;;;;;;13.57;9.70;;;;;;;18.47;62.12;101825.28;683364;28;46285;-66
2021/09/07 00:39:34;;;;;;;12.65;9.05;;;;;;;18.51;62.07;101832.03;683847;28;23491;-67
2021/09/07 00:39:57;;;;;;;11.77;8.45;;;;;;;18.52;62.04;101841.91;683971;28;22841;-67
2021/09/07 00:40:18;;;;;;;11.70;8.68;;;;;;;18.52;62.16;101836.44;681031;28;41352;-67
2021/09/07 00:40:43;;;;;;;16.95;9.27;;;;;;;18.53;62.11;101831.84;682555;28;21548;-67
2021/09/07 00:41:06;;;;;;;16.63;9.35;;;;;;;18.52;62.20;101830.97;681556;28;138215;-66
2021/09/07 00:41:27;;;;;;;14.45;9.27;;;;;;;18.53;62.03;101832.66;684465;28;44175;-66
2021/09/07 00:41:48;;;;;;;12.17;9.20;;;;;;;18.52;61.92;101836.44;684639;28;47767;-67
2021/09/07 00:42:09;;;;;;;12.02;9.05;;;;;;;18.53;62.08;101840.03;684249;28;46262;-66
2021/09/07 00:42:34;;;;;;;13.98;8.93;;;;;;;18.53;62.10;101834.56;685609;28;22433;-66
2021/09/07 00:42:55;;;;;;;12.68;8.77;;;;;;;18.53;62.15;101840.03;681971;28;92255;-66
2021/09/07 00:43:16;;;;;;;13.98;8.63;;;;;;;18.53;62.10;101832.66;681837;28;48724;-66
2021/09/07 00:43:39;;;;;;;14.48;9.35;;;;;;;18.52;62.22;101827.41;682733;28;22154;-67
2021/09/07 00:44:01;;;;;;;14.80;8.68;;;;;;;18.53;62.12;101824.47;680603;28;69507;-66
2021/09/07 00:44:23;;;;;;;12.48;8.57;;;;;;;18.53;62.04;101835.41;682908;28;22451;-67
2021/09/07 00:44:44;;;;;;;13.07;8.90;;;;;;;18.52;62.11;101825.50;681368;28;67495;-66
2021/09/07 00:45:07;;;;;;;12.68;9.00;;;;;;;18.53;62.11;101827.19;683462;28;22233;-68
2021/09/07 00:45:29;;;;;;;12.77;8.95;;;;;;;18.52;62.04;101828.25;680997;28;67051;-66
2021/09/07 00:45:50;;;;;;;13.93;9.05;;;;;;;18.48;62.05;101824.25;680909;28;45319;-66
2021/09/07 00:46:11;;;;;;;12.50;8.68;;;;;;;18.53;62.08;101826.38;681385;28;21232;-68
2021/09/07 00:46:33;;;;;;;13.85;9.32;;;;;;;18.53;62.08;101821.72;681742;28;22362;-66
2021/09/07 00:46:56;;;;;;;13.63;8.80;;;;;;;18.53;62.08;101829.09;681679;29;22416;-66
2021/09/07 00:47:17;;;;;;;15.00;8.55;;;;;;;18.52;62.15;101827.41;680898;28;69299;-66
2021/09/07 00:47:38;;;;;;;12.70;8.75;;;;;;;18.51;62.21;101822.97;681223;29;21514;-67
2021/09/07 00:47:59;;;;;;;10.25;8.15;;;;;;;18.52;62.17;101830.13;681709;28;21601;-66
2021/09/07 00:48:21;;;;;;;12.90;8.77;;;;;;;18.52;62.14;101824.66;682879;28;22398;-66
2021/09/07 00:48:42;;;;;;;13.02;8.68;;;;;;;18.51;62.23;101828.44;682203;28;46321;-66
2021/09/07 00:49:04;;;;;;;13.98;8.73;;;;;;;18.51;62.28;101829.31;682675;28;23459;-66
2021/09/07 00:49:26;;;;;;;12.75;9.05;;;;;;;18.50;62.09;101827.59;682546;28;44424;-67
2021/09/07 00:49:48;;;;;;;13.35;9.40;;;;;;;18.50;62.29;101826.78;682065;28;46452;-66
2021/09/07 00:50:11;;;;;;;13.38;9.10;;;;;;;18.50;62.22;101826.78;682055;28;46228;-66
2021/09/07 00:50:32;;;;;;;12.65;8.82;;;;;;;18.48;62.26;101829.72;681248;28;67248;-66
2021/09/07 00:50:54;;;;;;;11.32;8.52;;;;;;;18.50;62.26;101826.78;681973;28;46420;-66
2021/09/07 00:51:15;;;;;;;11.90;9.30;;;;;;;18.49;62.23;101822.34;680785;29;44406;-66
2021/09/07 00:51:36;;;;;;;13.50;9.05;;;;;;;18.49;62.41;101827.81;681836;29;21535;-67
2021/09/07 00:51:58;;;;;;;13.32;9.15;;;;;;;18.48;62.40;101824.25;681613;29;22264;-66
2021/09/07 00:52:20;;;;;;;13.43;9.02;;;;;;;18.48;62.24;101829.72;681574;28;46270;-66
2021/09/07 00:52:41;;;;;;;15.95;9.75;;;;;;;18.49;62.39;101822.34;682246;28;46315;-66
2021/09/07 00:53:03;;;;;;;15.27;9.52;;;;;;;18.47;62.22;101825.28;682933;28;22390;-66
2021/09/07 00:53:24;;;;;;;13.82;9.30;;;;;;;18.49;62.26;101819.59;682943;28;22406;-66
2021/09/07 00:53:46;;;;;;;13.27;9.13;;;;;;;18.48;62.34;101824.25;682927;28;22186;-67
2021/09/07 00:54:07;;;;;;;16.40;9.65;;;;;;;18.47;62.27;101824.44;681418;28;69138;-66
2021/09/07 00:54:31;;;;;;;13.60;9.25;;;;;;;18.46;62.42;101818.09;683034;28;22415;-67
2021/09/07 00:54:53;;;;;;;12.70;9.02;;;;;;;18.43;62.39;101815.81;681475;28;69419;-67
2021/09/07 00:55:15;;;;;;;13.98;9.30;;;;;;;18.45;62.43;101816.44;682077;28;45210;-66
2021/09/07 00:55:36;;;;;;;12.48;8.55;;;;;;;18.43;62.31;101818.53;681290;28;46423;-67
2021/09/07 00:56:00;;;;;;;13.68;9.27;;;;;;;18.41;62.33;101815.16;682494;28;22416;-66
2021/09/07 00:56:21;;;;;;;12.55;9.40;;;;;;;18.41;62.32;101817.88;679874;28;115204;-66
2021/09/07 00:56:42;;;;;;;12.52;9.05;;;;;;;18.40;62.49;101826.28;683113;28;22380;-67
2021/09/07 00:57:06;;;;;;;13.90;8.77;;;;;;;18.39;62.39;101813.69;683084;28;21696;-66
2021/09/07 00:57:28;;;;;;;14.30;9.05;;;;;;;18.37;62.55;101822.09;680496;28;92185;-66
2021/09/07 00:57:49;;;;;;;14.10;9.10;;;;;;;18.39;62.48;101821.88;682398;28;22399;-66
2021/09/07 00:58:12;;;;;;;15.02;9.65;;;;;;;18.35;62.57;101815.97;682597;28;46333;-66
2021/09/07 00:58:34;;;;;;;14.07;8.95;;;;;;;18.34;62.56;101825.22;682087;28;45328;-66
2021/09/07 00:58:56;;;;;;;13.43;8.50;;;;;;;18.32;62.48;101814.50;681284;28;70140;-66
2021/09/07 00:59:19;;;;;;;12.50;9.23;;;;;;;18.31;62.59;101823.72;682956;28;22380;-66
2021/09/07 00:59:40;;;;;;;12.68;9.10;;;;;;;18.30;62.75;101823.94;680525;28;90590;-67
2021/09/07 01:00:05;;;;;;;11.88;8.85;;;;;;;18.29;62.78;101820.38;682369;28;44386;-66
2021/09/07 01:00:27;;;;;;;12.82;9.30;;;;;;;18.27;62.89;101810.66;680406;28;90338;-66
2021/09/07 01:00:49;;;;;;;13.35;9.00;;;;;;;18.26;62.94;101818.03;682546;28;9455;-66
2021/09/07 01:01:10;;;;;;;12.40;8.93;;;;;;;18.24;62.71;101822.00;682966;28;22386;-68
2021/09/07 01:01:32;;;;;;;12.65;8.80;;;;;;;18.26;62.93;101825.38;683024;28;23449;-67
2021/09/07 01:01:54;;;;;;;13.50;9.43;;;;;;;18.25;62.84;101819.06;683664;28;14651;-65
2021/09/07 01:02:17;;;;;;;14.45;8.90;;;;;;;18.25;62.91;101821.81;682570;28;22487;-66
2021/09/07 01:02:38;;;;;;;14.80;9.38;;;;;;;18.26;62.94;101820.78;682310;28;43669;-66
2021/09/07 01:03:01;;;;;;;14.57;9.52;;;;;;;18.25;62.74;101815.50;682205;28;45238;-66
2021/09/07 01:03:22;;;;;;;13.88;8.95;;;;;;;18.26;62.78;101826.25;682163;28;45148;-66
2021/09/07 01:03:43;;;;;;;13.40;8.65;;;;;;;18.25;63.01;101819.06;683483;28;21537;-66
2021/09/07 01:04:04;;;;;;;12.82;9.00;;;;;;;18.23;62.90;101818.44;682607;28;22382;-68
2021/09/07 01:04:28;;;;;;;12.68;9.10;;;;;;;18.24;63.04;101820.09;681334;28;69801;-66
2021/09/07 01:04:50;;;;;;;14.15;9.50;;;;;;;18.23;63.04;101821.16;681357;28;70205;-67
2021/09/07 01:05:11;;;;;;;12.45;8.85;;;;;;;18.22;63.14;101819.47;682372;28;45183;-67
2021/09/07 01:05:33;;;;;;;12.48;9.18;;;;;;;18.23;62.99;101818.44;682568;28;23535;-67
2021/09/07 01:05:57;;;;;;;13.55;9.00;;;;;;;18.24;62.88;101816.53;681250;28;69721;-66
2021/09/07 01:06:18;;;;;;;12.20;9.20;;;;;;;18.25;63.08;101818.25;679697;28;87956;-67
2021/09/07 01:06:39;;;;;;;12.40;8.90;;;;;;;18.25;63.07;101818.25;681597;29;24338;-67
2021/09/07 01:07:04;;;;;;;13.20;9.27;;;;;;;18.25;63.03;101815.50;680626;28;69213;-67
2021/09/07 01:07:27;;;;;;;15.32;9.25;;;;;;;18.27;63.02;101813.41;679899;28;92348;-66
2021/09/07 01:07:49;;;;;;;16.30;9.05;;;;;;;18.26;63.27;101814.44;679495;29;69268;-66
2021/09/07 01:08:10;;;;;;;14.20;9.07;;;;;;;18.25;63.12;101813.59;681673;29;21281;-66
2021/09/07 01:08:33;;;;;;;12.13;8.95;;;;;;;18.24;63.12;101811.91;681443;28;46074;-67
2021/09/07 01:08:57;;;;;;;12.35;8.60;;;;;;;18.24;63.04;101808.34;681304;28;67093;-66
2021/09/07 01:09:19;;;;;;;13.40;8.60;;;;;;;18.25;63.03;101810.88;679395;28;92136;-66
2021/09/07 01:09:41;;;;;;;12.68;8.63;;;;;;;18.24;63.07;101809.16;681801;28;21501;-67
2021/09/07 01:10:07;;;;;;;13.35;9.10;;;;;;;18.22;63.16;101803.06;679316;28;115052;-66
2021/09/07 01:10:29;;;;;;;11.13;8.65;;;;;;;18.21;63.12;101812.31;679998;28;113437;-66
2021/09/07 01:10:51;;;;;;;13.15;8.80;;;;;;;18.21;63.08;101812.31;681832;28;44328;-67
2021/09/07 01:11:18;;;;;;;13.50;8.98;;;;;;;18.18;63.10;101805.38;683193;28;21498;-67
2021/09/07 01:11:39;;;;;;;12.85;9.48;;;;;;;18.18;63.16;101808.09;678946;28;137854;-67
2021/09/07 01:12:02;;;;;;;14.25;9.02;;;;;;;18.17;63.27;101803.66;681583;28;70747;-66
2021/09/07 01:12:24;;;;;;;12.02;8.57;;;;;;;18.16;63.34;101803.88;681859;28;46431;-66
2021/09/07 01:12:45;;;;;;;12.20;9.18;;;;;;;18.17;63.17;101811.03;681114;28;45258;-66
2021/09/07 01:13:07;;;;;;;11.70;9.23;;;;;;;18.15;63.15;101805.78;681751;29;22577;-66
2021/09/07 01:13:28;;;;;;;13.25;8.98;;;;;;;18.14;63.23;101806.81;681877;28;44489;-66
2021/09/07 01:13:50;;;;;;;12.95;9.13;;;;;;;18.13;63.31;101807.00;682580;28;46454;-66
2021/09/07 01:14:17;;;;;;;13.17;9.47;;;;;;;18.11;63.52;101804.47;682242;28;46309;-66
2021/09/07 01:14:39;;;;;;;13.80;9.05;;;;;;;18.08;63.30;101793.09;678927;28;137951;-66
2021/09/07 01:15:01;;;;;;;14.95;9.02;;;;;;;18.11;63.21;101803.63;682266;28;45279;-66
2021/09/07 01:15:22;;;;;;;15.05;9.18;;;;;;;18.09;63.25;101808.47;682337;28;46366;-67
2021/09/07 01:15:44;;;;;;;13.02;9.07;;;;;;;18.08;63.36;101810.34;683360;28;23449;-66
2021/09/07 01:16:06;;;;;;;14.60;9.43;;;;;;;18.06;63.21;101806.97;682093;28;46274;-66
2021/09/07 01:16:28;;;;;;;13.40;9.52;;;;;;;18.07;63.30;101803.22;682728;28;46372;-66
2021/09/07 01:16:49;;;;;;;13.35;9.48;;;;;;;18.08;63.14;101809.50;683253;28;22349;-68
2021/09/07 01:17:13;;;;;;;13.30;9.63;;;;;;;18.07;63.14;101805.94;682337;28;44389;-66
2021/09/07 01:17:35;;;;;;;15.18;8.85;;;;;;;18.07;63.40;101805.06;680872;28;92484;-66
2021/09/07 01:17:56;;;;;;;14.65;8.85;;;;;;;18.08;63.33;101810.34;682791;28;23415;-67
2021/09/07 01:18:18;;;;;;;12.55;8.75;;;;;;;18.08;63.27;101802.13;683159;28;22215;-67
2021/09/07 01:18:40;;;;;;;16.20;10.10;;;;;;;18.09;63.35;101809.31;681171;28;69505;-66
2021/09/07 01:19:02;;;;;;;15.93;9.85;;;;;;;18.11;63.48;101809.94;683086;28;21697;-66
2021/09/07 01:19:23;;;;;;;14.30;9.23;;;;;;;18.11;63.42;101807.22;681895;28;46122;-67
2021/09/07 01:19:47;;;;;;;15.27;9.30;;;;;;;18.11;63.34;101809.09;683243;28;22382;-67
2021/09/07 01:20:09;;;;;;;14.80;9.40;;;;;;;18.11;63.35;101807.22;681141;28;92998;-67
2021/09/07 01:20:30;;;;;;;13.38;9.30;;;;;;;18.12;63.30;101813.50;682230;28;44400;-66
2021/09/07 01:20:51;;;;;;;15.60;9.52;;;;;;;18.11;63.34;101811.84;683289;28;24431;-67
2021/09/07 01:21:14;;;;;;;13.32;9.40;;;;;;;18.11;63.46;101811.84;682807;28;22413;-66
2021/09/07 01:21:36;;;;;;;12.45;9.38;;;;;;;18.09;63.41;101808.47;681404;28;69604;-67
2021/09/07 01:21:57;;;;;;;12.77;9.10;;;;;;;18.09;63.49;101808.47;682261;28;46521;-67
2021/09/07 01:22:20;;;;;;;14.90;9.13;;;;;;;18.10;63.45;101807.41;682828;28;22381;-67
2021/09/07 01:22:42;;;;;;;12.60;8.85;;;;;;;18.10;63.49;101804.69;681673;28;69218;-66
2021/09/07 01:23:03;;;;;;;12.15;8.70;;;;;;;18.10;63.48;101812.88;681883;28;46321;-66
2021/09/07 01:23:25;;;;;;;13.15;8.93;;;;;;;18.11;63.33;101809.09;682808;28;21521;-66
2021/09/07 01:23:48;;;;;;;13.20;9.15;;;;;;;18.09;63.45;101803.84;683068;28;22423;-66
2021/09/07 01:24:10;;;;;;;16.65;10.05;;;;;;;18.12;63.47;101806.19;681357;28;69261;-66
2021/09/07 01:24:33;;;;;;;12.95;9.10;;;;;;;18.13;63.54;101813.31;681795;28;46401;-67
2021/09/07 01:24:54;;;;;;;12.40;9.20;;;;;;;18.13;63.46;101813.31;680711;28;92362;-66
2021/09/07 01:25:17;;;;;;;13.85;9.27;;;;;;;18.14;63.48;101811.44;682599;28;21546;-66
2021/09/07 01:25:39;;;;;;;13.95;8.93;;;;;;;18.14;63.35;101811.44;681789;28;46356;-66
2021/09/07 01:26:00;;;;;;;14.50;9.35;;;;;;;18.14;63.27;101808.72;681904;28;45354;-66
2021/09/07 01:26:22;;;;;;;13.95;8.73;;;;;;;18.15;63.21;101811.25;681804;28;21530;-66
2021/09/07 01:26:43;;;;;;;13.85;9.05;;;;;;;18.17;63.10;101809.13;682000;28;47509;-66
2021/09/07 01:27:06;;;;;;;12.70;8.55;;;;;;;18.18;63.15;101818.16;683084;28;22425;-66
2021/09/07 01:27:27;;;;;;;12.60;8.77;;;;;;;18.18;63.01;101813.56;681767;28;69411;-66
2021/09/07 01:27:49;;;;;;;13.63;8.70;;;;;;;18.19;63.01;101809.78;680957;28;67597;-66
2021/09/07 01:28:15;;;;;;;12.95;9.07;;;;;;;18.19;63.07;101811.66;682401;28;21631;-66
2021/09/07 01:28:38;;;;;;;12.35;8.80;;;;;;;18.20;63.00;101807.91;678599;28;138053;-67
2021/09/07 01:29:00;;;;;;;12.63;9.20;;;;;;;18.21;63.01;101809.56;681970;28;45281;-66
2021/09/07 01:29:22;;;;;;;12.63;8.80;;;;;;;18.21;62.95;101809.56;681537;28;46421;-66
2021/09/07 01:29:48;;;;;;;13.45;8.93;;;;;;;18.20;63.05;101805.16;679809;28;92319;-66
2021/09/07 01:30:10;;;;;;;13.35;8.93;;;;;;;18.20;62.95;101802.44;681207;28;68303;-66
2021/09/07 01:30:31;;;;;;;12.55;8.65;;;;;;;18.21;63.05;101808.72;682939;28;67548;-67
2021/09/07 01:30:53;;;;;;;11.40;8.38;;;;;;;18.19;63.06;101803.47;682712;28;70314;-66
2021/09/07 01:31:16;;;;;;;12.25;8.45;;;;;;;18.19;63.14;101803.47;683646;28;22414;-66
2021/09/07 01:31:37;;;;;;;12.30;8.73;;;;;;;18.18;63.02;101807.25;682829;28;70417;-67
2021/09/07 01:31:59;;;;;;;14.18;8.95;;;;;;;18.18;63.07;101810.84;683758;28;46436;-66
2021/09/07 01:32:22;;;;;;;13.95;9.05;;;;;;;18.17;62.99;101803.66;682748;28;45234;-66
2021/09/07 01:32:43;;;;;;;13.18;9.02;;;;;;;18.17;63.03;101806.41;681420;28;46188;-66
2021/09/07 01:33:04;;;;;;;11.68;8.30;;;;;;;18.17;63.16;101811.03;682440;28;23522;-67
2021/09/07 01:33:25;;;;;;;15.50;9.13;;;;;;;18.17;63.25;101816.50;683504;28;22377;-66
2021/09/07 01:33:47;;;;;;;13.65;9.00;;;;;;;18.15;63.04;101808.50;683439;28;24230;-66
2021/09/07 01:34:09;;;;;;;13.15;8.63;;;;;;;18.16;63.18;101812.06;681778;28;69413;-66
2021/09/07 01:34:30;;;;;;;12.70;8.40;;;;;;;18.16;63.18;101814.81;683758;28;22444;-66
2021/09/07 01:34:51;;;;;;;12.70;8.77;;;;;;;18.16;63.20;101820.28;682918;28;22375;-66
2021/09/07 01:35:13;;;;;;;12.15;8.45;;;;;;;18.16;63.28;101814.81;683274;28;22400;-67
2021/09/07 01:35:34;;;;;;;12.52;8.93;;;;;;;18.16;63.12;101812.91;681292;29;46330;-67
2021/09/07 01:35:56;;;;;;;13.85;9.30;;;;;;;18.14;63.01;101815.00;682148;29;23874;-67
2021/09/07 01:36:17;;;;;;;12.68;8.75;;;;;;;18.16;63.06;101815.63;680966;28;46417;-68
2021/09/07 01:36:42;;;;;;;11.55;8.50;;;;;;;18.16;63.11;101812.06;683310;28;22474;-67
2021/09/07 01:37:03;;;;;;;13.63;8.50;;;;;;;18.15;63.09;101819.44;680025;28;116192;-68
2021/09/07 01:37:26;;;;;;;12.52;8.85;;;;;;;18.15;63.13;101816.72;683777;28;21393;-68
2021/09/07 01:37:48;;;;;;;12.27;8.82;;;;;;;18.16;63.22;101818.38;681331;28;67518;-67
2021/09/07 01:38:09;;;;;;;12.52;8.75;;;;;;;18.16;62.96;101812.91;682188;28;44379;-66
2021/09/07 01:38:30;;;;;;;12.10;8.70;;;;;;;18.16;63.12;101810.19;683268;28;22330;-67
2021/09/07 01:38:51;;;;;;;16.00;9.40;;;;;;;18.17;63.08;101819.25;683810;28;21530;-67
2021/09/07 01:39:13;;;;;;;12.88;9.00;;;;;;;18.15;63.01;101813.09;683249;28;22210;-67
2021/09/07 01:39:37;;;;;;;12.73;9.00;;;;;;;18.19;63.08;101814.41;682714;28;46314;-69
2021/09/07 01:39:58;;;;;;;13.18;8.98;;;;;;;18.19;62.86;101817.13;679753;28;91312;-67
2021/09/07 01:40:19;;;;;;;11.23;8.18;;;;;;;18.18;63.01;101819.03;681946;28;22394;-67
2021/09/07 01:40:40;;;;;;;13.95;8.73;;;;;;;18.18;62.88;101816.31;682025;28;22400;-67
2021/09/07 01:41:03;;;;;;;15.77;9.32;;;;;;;18.18;62.89;101812.72;682075;28;21533;-66
2021/09/07 01:41:24;;;;;;;15.63;8.88;;;;;;;18.18;62.90;101813.56;681576;28;46321;-68
2021/09/07 01:41:46;;;;;;;14.25;8.57;;;;;;;18.19;63.06;101820.72;683450;28;23425;-67